Time,TemperatureF,DewpointF,PressureIn,WindDirection,WindDirectionDegrees,WindSpeedMPH,WindSpeedGustMPH,Humidity,HourlyPrecipIn,Conditions,Clouds,dailyrainin,SoftwareType,DateUTC
2013-04-20 00:00:00,68.0,63.7,29.70,SW,225,2.0,3.0,86,0.00,,OVC018,0.00,VWS V14.01,2013-04-20 04:00:00,
2013-04-20 00:10:00,66.0,63.6,29.70,SSW,202,3.0,3.0,92,0.00,,OVC018,0.00,VWS V14.01,2013-04-20 04:10:00,
2013-04-20 00:20:00,65.0,63.5,29.68,SW,225,2.0,3.0,95,0.00,,OVC018,0.01,VWS V14.01,2013-04-20 04:20:00,
2013-04-20 00:30:00,65.0,64.1,29.69,SW,225,1.0,2.0,97,0.00,,OVC018,0.02,VWS V14.01,2013-04-20 04:30:00,
2013-04-20 00:40:00,65.0,64.4,29.68,SW,225,2.0,2.0,98,0.00,,OVC018,0.03,VWS V14.01,2013-04-20 04:40:00,
2013-04-20 00:50:00,64.0,63.4,29.68,SW,225,1.0,2.0,98,0.00,,OVC018,0.03,VWS V14.01,2013-04-20 04:50:00,
2013-04-20 01:00:00,64.0,63.4,29.67,South,180,2.0,2.0,98,0.00,,OVC018,0.03,VWS V14.01,2013-04-20 05:00:00,
2013-04-20 01:10:00,64.0,63.4,29.68,SW,225,1.0,2.0,98,0.00,,OVC018,0.04,VWS V14.01,2013-04-20 05:10:00,
2013-04-20 01:20:00,64.0,63.4,29.67,WSW,247,1.0,1.0,98,0.00,,OVC018,0.04,VWS V14.01,2013-04-20 05:20:00,
2013-04-20 01:30:00,64.0,63.4,29.65,SSE,157,1.0,1.0,98,0.00,,OVC018,0.04,VWS V14.01,2013-04-20 05:30:00,
2013-04-20 01:40:00,64.0,63.4,29.65,WSW,247,1.0,1.0,98,0.00,,OVC018,0.04,VWS V14.01,2013-04-20 05:40:00,
2013-04-20 01:50:00,63.0,62.4,29.65,South,180,1.0,1.0,98,0.00,,OVC018,0.04,VWS V14.01,2013-04-20 05:50:00,
2013-04-20 02:00:00,63.0,62.4,29.65,SW,225,1.0,1.0,98,0.00,,OVC018,0.05,VWS V14.01,2013-04-20 06:00:00,
2013-04-20 02:10:00,63.0,62.4,29.65,SW,225,2.0,2.0,98,0.00,,OVC018,0.05,VWS V14.01,2013-04-20 06:10:00,
2013-04-20 02:20:00,63.0,62.4,29.65,SSW,202,1.0,2.0,98,0.00,,OVC018,0.05,VWS V14.01,2013-04-20 06:20:00,
2013-04-20 02:30:00,63.0,62.4,29.66,WNW,292,1.0,1.0,98,0.00,,OVC018,0.05,VWS V14.01,2013-04-20 06:30:00,
2013-04-20 02:40:00,59.0,57.0,29.67,NNW,337,3.0,3.0,93,0.00,,OVC018,0.07,VWS V14.01,2013-04-20 06:40:00,
2013-04-20 02:50:00,56.0,55.2,29.67,NNW,337,2.0,3.0,97,0.00,,OVC018,0.08,VWS V14.01,2013-04-20 06:50:00,
2013-04-20 03:00:00,56.0,55.2,29.67,NW,315,1.0,2.0,97,0.00,,OVC018,0.08,VWS V14.01,2013-04-20 07:00:00,
2013-04-20 03:10:00,55.0,54.2,29.68,NNE,22,2.0,2.0,97,0.00,,OVC018,0.09,VWS V14.01,2013-04-20 07:10:00,
2013-04-20 03:20:00,55.0,54.2,29.68,NW,315,0.0,2.0,97,0.00,,OVC018,0.09,VWS V14.01,2013-04-20 07:20:00,
2013-04-20 03:30:00,54.0,53.2,29.69,NNW,337,1.0,1.0,97,0.00,,OVC018,0.10,VWS V14.01,2013-04-20 07:30:00,
2013-04-20 03:40:00,53.0,52.2,29.70,North,360,3.0,3.0,97,0.00,,OVC018,0.12,VWS V14.01,2013-04-20 07:40:00,
2013-04-20 03:50:00,52.0,51.2,29.68,NNW,337,2.0,3.0,97,0.00,,OVC018,0.13,VWS V14.01,2013-04-20 07:50:00,
2013-04-20 04:00:00,51.0,50.2,29.68,North,360,1.0,2.0,97,0.00,,OVC018,0.14,VWS V14.01,2013-04-20 08:00:00,
2013-04-20 04:10:00,50.0,49.2,29.69,SW,225,2.0,2.0,97,0.00,,OVC018,0.14,VWS V14.01,2013-04-20 08:10:00,
2013-04-20 04:20:00,49.0,48.2,29.69,WNW,292,1.0,2.0,97,0.00,,OVC018,0.16,VWS V14.01,2013-04-20 08:20:00,
2013-04-20 04:30:00,49.0,48.2,29.70,NW,315,2.0,2.0,97,0.00,,OVC018,0.17,VWS V14.01,2013-04-20 08:30:00,
2013-04-20 04:40:00,49.0,48.2,29.71,NNW,337,1.0,2.0,97,0.00,,OVC018,0.21,VWS V14.01,2013-04-20 08:40:00,
2013-04-20 04:50:00,48.0,47.2,29.71,NW,315,0.0,1.0,97,0.00,,OVC018,0.24,VWS V14.01,2013-04-20 08:50:00,
2013-04-20 05:00:00,48.0,47.2,29.70,NNW,337,0.0,0.0,97,0.00,,OVC018,0.26,VWS V14.01,2013-04-20 09:00:00,
2013-04-20 05:10:00,48.0,47.2,29.70,WNW,292,0.0,0.0,97,0.00,,OVC018,0.28,VWS V14.01,2013-04-20 09:10:00,
2013-04-20 05:20:00,48.0,47.2,29.73,West,270,0.0,0.0,97,0.00,,OVC018,0.29,VWS V14.01,2013-04-20 09:20:00,
2013-04-20 05:30:00,48.0,47.2,29.74,WSW,247,1.0,1.0,97,0.00,,OVC018,0.29,VWS V14.01,2013-04-20 09:30:00,
2013-04-20 05:40:00,48.0,47.2,29.74,North,360,0.0,1.0,97,0.00,,OVC018,0.30,VWS V14.01,2013-04-20 09:40:00,
2013-04-20 05:50:00,47.0,46.2,29.75,NW,315,1.0,1.0,97,0.00,,OVC018,0.30,VWS V14.01,2013-04-20 09:50:00,
2013-04-20 06:00:00,47.0,46.2,29.74,North,360,0.0,1.0,97,0.00,,OVC018,0.31,VWS V14.01,2013-04-20 10:00:00,
2013-04-20 06:10:00,47.0,46.2,29.75,NW,315,0.0,0.0,97,0.00,,OVC018,0.31,VWS V14.01,2013-04-20 10:10:00,
2013-04-20 06:20:00,47.0,46.2,29.76,North,360,0.0,0.0,97,0.00,,OVC018,0.32,VWS V14.01,2013-04-20 10:20:00,
2013-04-20 06:30:00,47.0,46.2,29.77,ENE,67,0.0,0.0,97,0.00,,OVC018,0.34,VWS V14.01,2013-04-20 10:30:00,
2013-04-20 06:40:00,47.0,46.2,29.78,West,270,0.0,0.0,97,0.00,,OVC018,0.36,VWS V14.01,2013-04-20 10:40:00,
2013-04-20 06:50:00,46.0,45.2,29.80,SW,225,1.0,1.0,97,0.00,,OVC018,0.36,VWS V14.01,2013-04-20 10:50:00,
2013-04-20 07:00:00,46.0,45.2,29.80,SSW,202,1.0,1.0,97,0.00,,OVC018,0.37,VWS V14.01,2013-04-20 11:00:00,
2013-04-20 07:10:00,46.0,45.2,29.80,WNW,292,1.0,1.0,97,0.00,,OVC018,0.37,VWS V14.01,2013-04-20 11:10:00,
2013-04-20 07:20:00,46.0,45.2,29.80,NNW,337,2.0,2.0,97,0.00,,OVC018,0.37,VWS V14.01,2013-04-20 11:20:00,
2013-04-20 07:30:00,46.0,45.2,29.80,SW,225,1.0,2.0,97,0.00,,OVC018,0.37,VWS V14.01,2013-04-20 11:30:00,
2013-04-20 07:40:00,46.0,45.2,29.80,NNE,22,0.0,1.0,97,0.00,,OVC018,0.37,VWS V14.01,2013-04-20 11:40:00,
2013-04-20 07:50:00,46.0,45.2,29.81,NW,315,0.0,0.0,97,0.00,,OVC018,0.37,VWS V14.01,2013-04-20 11:50:00,
2013-04-20 08:00:00,46.0,45.2,29.81,NNW,337,0.0,0.0,97,0.00,,OVC018,0.37,VWS V14.01,2013-04-20 12:00:00,
2013-04-20 08:10:00,46.0,45.2,29.81,SW,225,0.0,0.0,97,0.00,,OVC018,0.37,VWS V14.01,2013-04-20 12:10:00,
2013-04-20 08:20:00,47.0,45.9,29.81,WSW,247,0.0,0.0,96,0.00,,OVC018,0.37,VWS V14.01,2013-04-20 12:20:00,
2013-04-20 08:30:00,47.0,44.5,29.80,NW,315,0.0,0.0,91,0.00,,OVC018,0.37,VWS V14.01,2013-04-20 12:30:00,
2013-04-20 08:40:00,47.0,43.6,29.81,WSW,247,1.0,1.0,88,0.00,,OVC018,0.37,VWS V14.01,2013-04-20 12:40:00,
2013-04-20 08:50:00,48.0,43.7,29.82,West,270,1.0,1.0,85,0.00,,OVC018,0.37,VWS V14.01,2013-04-20 12:50:00,
2013-04-20 09:00:00,48.0,44.3,29.82,NNW,337,1.0,1.0,87,0.00,,OVC018,0.37,VWS V14.01,2013-04-20 13:00:00,
2013-04-20 09:10:00,48.0,43.1,29.82,South,180,1.0,1.0,83,0.00,,OVC018,0.37,VWS V14.01,2013-04-20 13:10:00,
2013-04-20 09:13:00,48.0,43.4,29.83,West,270,0.0,1.0,84,0.37,,OVC018,0.37,VWS V14.01,2013-04-20 13:13:00,
2013-04-20 09:14:00,48.0,43.4,29.83,West,270,1.0,1.0,84,0.37,,OVC018,0.37,VWS V14.01,2013-04-20 13:14:00,
2013-04-20 09:15:00,48.0,43.1,29.83,East,90,0.0,2.0,83,0.37,,OVC018,0.37,VWS V14.01,2013-04-20 13:15:00,
2013-04-20 09:16:00,48.0,43.1,29.83,South,180,2.0,2.0,83,0.37,,OVC018,0.37,VWS V14.01,2013-04-20 13:16:00,
2013-04-20 09:17:00,48.0,42.5,29.83,WNW,292,1.0,3.0,81,0.37,,OVC018,0.37,VWS V14.01,2013-04-20 13:17:00,
2013-04-20 09:18:00,48.0,41.8,29.83,SW,225,0.0,3.0,79,0.37,,OVC018,0.37,VWS V14.01,2013-04-20 13:18:00,
2013-04-20 10:16:00,48.0,41.8,29.83,SW,225,2.0,3.0,79,0.37,,OVC018,0.37,VWS V14.01,2013-04-20 14:16:00,
2013-04-20 10:17:00,49.0,43.1,29.84,SW,225,0.0,3.0,80,0.37,,OVC018,0.37,VWS V14.01,2013-04-20 14:17:00,
2013-04-20 10:21:00,49.0,43.1,29.84,WSW,247,0.0,2.0,80,0.37,,OVC065,0.37,VWS V14.01,2013-04-20 14:21:00,
2013-04-20 10:22:00,49.0,43.4,29.84,West,270,2.0,3.0,81,0.37,,OVC065,0.37,VWS V14.01,2013-04-20 14:22:00,
2013-04-20 10:26:00,49.0,41.8,29.84,NNW,337,2.0,6.0,76,0.37,,OVC065,0.37,VWS V14.01,2013-04-20 14:26:00,
2013-04-20 10:27:00,49.0,42.1,29.84,WSW,247,0.0,6.0,77,0.37,,OVC065,0.37,VWS V14.01,2013-04-20 14:27:00,
2013-04-20 10:31:00,50.0,41.7,29.84,NW,315,1.0,7.0,73,0.37,,OVC065,0.37,VWS V14.01,2013-04-20 14:31:00,
2013-04-20 10:32:00,50.0,41.3,29.84,West,270,0.0,7.0,72,0.37,,OVC065,0.37,VWS V14.01,2013-04-20 14:32:00,
2013-04-20 10:36:00,50.0,41.3,29.84,NNW,337,1.0,7.0,72,0.37,,OVC065,0.37,VWS V14.01,2013-04-20 14:36:00,
2013-04-20 10:37:00,50.0,41.7,29.85,SE,135,0.0,7.0,73,0.37,,OVC065,0.37,VWS V14.01,2013-04-20 14:37:00,
2013-04-20 10:38:00,50.0,41.7,29.85,South,180,0.0,7.0,73,0.37,,OVC065,0.37,VWS V14.01,2013-04-20 14:38:00,
2013-04-20 10:41:00,50.0,40.6,29.85,SSW,202,0.0,6.0,70,0.37,,OVC065,0.37,VWS V14.01,2013-04-20 14:41:00,
2013-04-20 10:42:00,51.0,41.9,29.84,West,270,0.0,6.0,71,0.37,,OVC065,0.37,VWS V14.01,2013-04-20 14:42:00,
2013-04-20 10:43:00,51.0,42.3,29.84,North,360,0.0,6.0,72,0.37,,OVC065,0.37,VWS V14.01,2013-04-20 14:43:00,
2013-04-20 10:46:00,51.0,41.2,29.84,NNE,22,2.0,6.0,69,0.37,,OVC065,0.37,VWS V14.01,2013-04-20 14:46:00,
2013-04-20 10:47:00,51.0,41.6,29.85,North,360,1.0,6.0,70,0.37,,OVC065,0.37,VWS V14.01,2013-04-20 14:47:00,
2013-04-20 10:48:00,51.0,41.6,29.85,North,360,0.0,6.0,70,0.37,,OVC065,0.37,VWS V14.01,2013-04-20 14:48:00,
2013-04-20 10:51:00,52.0,43.6,29.85,SSW,202,0.0,3.0,73,0.37,,OVC065,0.37,VWS V14.01,2013-04-20 14:51:00,
2013-04-20 10:52:00,53.0,44.2,29.86,South,180,0.0,3.0,72,0.37,,OVC065,0.37,VWS V14.01,2013-04-20 14:52:00,
2013-04-20 10:53:00,53.0,43.1,29.86,West,270,1.0,3.0,69,0.37,,OVC065,0.37,VWS V14.01,2013-04-20 14:53:00,
2013-04-20 10:56:00,52.0,41.4,29.86,NE,45,1.0,8.0,67,0.37,,OVC065,0.37,VWS V14.01,2013-04-20 14:56:00,
2013-04-20 10:57:00,53.0,42.3,29.86,SSW,202,2.0,8.0,67,0.37,,OVC065,0.37,VWS V14.01,2013-04-20 14:57:00,
2013-04-20 10:58:00,52.0,40.6,29.86,WSW,247,0.0,8.0,65,0.37,,OVC065,0.37,VWS V14.01,2013-04-20 14:58:00,
2013-04-20 11:01:00,52.0,41.0,29.86,WSW,247,1.0,5.0,66,0.37,,OVC065,0.37,VWS V14.01,2013-04-20 15:01:00,
2013-04-20 11:02:00,53.0,41.2,29.85,WSW,247,2.0,11.0,64,0.37,,OVC065,0.37,VWS V14.01,2013-04-20 15:02:00,
2013-04-20 11:03:00,53.0,41.2,29.85,SSW,202,0.0,11.0,64,0.37,,OVC065,0.37,VWS V14.01,2013-04-20 15:03:00,
2013-04-20 11:06:00,53.0,41.2,29.87,West,270,4.0,11.0,64,0.37,,OVC065,0.37,VWS V14.01,2013-04-20 15:06:00,
2013-04-20 11:08:00,53.0,40.3,29.87,West,270,0.0,11.0,62,0.37,,OVC065,0.37,VWS V14.01,2013-04-20 15:08:00,
2013-04-20 11:09:00,53.0,40.8,29.87,SW,225,4.0,4.0,63,0.37,,OVC065,0.37,VWS V14.01,2013-04-20 15:09:00,
2013-04-20 11:12:00,53.0,40.8,29.87,SW,225,0.0,8.0,63,0.37,,OVC065,0.37,VWS V14.01,2013-04-20 15:12:00,
2013-04-20 11:13:00,53.0,41.6,29.87,SSE,157,0.0,8.0,65,0.37,,OVC065,0.37,VWS V14.01,2013-04-20 15:13:00,
2013-04-20 11:14:00,53.0,41.2,29.87,NW,315,2.0,8.0,64,0.37,,OVC065,0.37,VWS V14.01,2013-04-20 15:14:00,
2013-04-20 11:17:00,53.0,40.8,29.88,NNW,337,1.0,8.0,63,0.37,,OVC065,0.37,VWS V14.01,2013-04-20 15:17:00,
2013-04-20 11:18:00,53.0,40.8,29.88,WNW,292,2.0,8.0,63,0.37,,OVC065,0.37,VWS V14.01,2013-04-20 15:18:00,
2013-04-20 11:19:00,53.0,39.1,29.88,NNW,337,2.0,2.0,59,0.00,,OVC065,0.37,VWS V14.01,2013-04-20 15:19:00,
2013-04-20 11:22:00,53.0,39.1,29.88,NNE,22,2.0,12.0,59,0.00,,OVC065,0.37,VWS V14.01,2013-04-20 15:22:00,
2013-04-20 11:23:00,53.0,39.1,29.88,ESE,112,2.0,12.0,59,0.00,,OVC065,0.37,VWS V14.01,2013-04-20 15:23:00,
2013-04-20 11:24:00,53.0,40.3,29.88,North,360,2.0,12.0,62,0.00,,OVC065,0.37,VWS V14.01,2013-04-20 15:24:00,
2013-04-20 11:27:00,53.0,38.2,29.87,ENE,67,2.0,12.0,57,0.00,,OVC065,0.37,VWS V14.01,2013-04-20 15:27:00,
2013-04-20 11:28:00,53.0,38.6,29.87,NW,315,3.0,12.0,58,0.00,,OVC065,0.37,VWS V14.01,2013-04-20 15:28:00,
2013-04-20 11:29:00,53.0,38.6,29.87,WNW,292,0.0,2.0,58,0.00,,OVC065,0.37,VWS V14.01,2013-04-20 15:29:00,
2013-04-20 11:32:00,54.0,37.3,29.87,North,360,2.0,6.0,53,0.00,,OVC065,0.37,VWS V14.01,2013-04-20 15:32:00,
2013-04-20 11:33:00,54.0,37.3,29.87,West,270,0.0,6.0,53,0.00,,OVC065,0.37,VWS V14.01,2013-04-20 15:33:00,
2013-04-20 11:34:00,54.0,39.1,29.87,West,270,0.0,6.0,57,0.00,,OVC065,0.37,VWS V14.01,2013-04-20 15:34:00,
2013-04-20 11:38:00,54.0,38.7,29.88,WSW,247,7.0,7.0,56,0.00,,OVC065,0.37,VWS V14.01,2013-04-20 15:38:00,
2013-04-20 11:39:00,54.0,38.2,29.88,NW,315,2.0,3.0,55,0.00,,OVC065,0.37,VWS V14.01,2013-04-20 15:39:00,
2013-04-20 11:43:00,55.0,38.7,29.88,NNW,337,8.0,9.0,54,0.00,,OVC065,0.37,VWS V14.01,2013-04-20 15:43:00,
2013-04-20 11:44:00,54.0,37.8,29.88,SW,225,3.0,9.0,54,0.00,,OVC065,0.37,VWS V14.01,2013-04-20 15:44:00,
2013-04-20 11:45:00,54.0,35.8,29.88,North,360,0.0,9.0,50,0.00,,OVC065,0.37,VWS V14.01,2013-04-20 15:45:00,
2013-04-20 11:48:00,54.0,37.8,29.88,SW,225,1.0,9.0,54,0.00,,OVC065,0.37,VWS V14.01,2013-04-20 15:48:00,
2013-04-20 11:49:00,54.0,38.7,29.88,North,360,1.0,3.0,56,0.00,,OVC065,0.37,VWS V14.01,2013-04-20 15:49:00,
2013-04-20 11:50:00,54.0,37.3,29.88,NW,315,2.0,6.0,53,0.00,,OVC065,0.37,VWS V14.01,2013-04-20 15:50:00,
2013-04-20 11:53:00,54.0,37.8,29.88,North,360,1.0,7.0,54,0.00,,OVC065,0.37,VWS V14.01,2013-04-20 15:53:00,
2013-04-20 11:54:00,54.0,37.8,29.88,SSW,202,2.0,7.0,54,0.00,,OVC065,0.37,VWS V14.01,2013-04-20 15:54:00,
2013-04-20 11:55:00,54.0,37.8,29.88,South,180,0.0,7.0,54,0.00,,OVC065,0.37,VWS V14.01,2013-04-20 15:55:00,
2013-04-20 11:58:00,54.0,37.8,29.88,West,270,3.0,7.0,54,0.00,,OVC065,0.37,VWS V14.01,2013-04-20 15:58:00,
2013-04-20 11:59:00,55.0,39.6,29.88,WSW,247,1.0,4.0,56,0.00,,OVC065,0.37,VWS V14.01,2013-04-20 15:59:00,
2013-04-20 12:00:00,54.0,36.3,29.88,WNW,292,3.0,8.0,51,0.00,,OVC065,0.37,VWS V14.01,2013-04-20 16:00:00,
2013-04-20 12:03:00,55.0,38.2,29.88,WNW,292,2.0,8.0,53,0.00,,OVC065,0.37,VWS V14.01,2013-04-20 16:03:00,
2013-04-20 12:04:00,55.0,38.2,29.88,WNW,292,2.0,8.0,53,0.00,,OVC065,0.37,VWS V14.01,2013-04-20 16:04:00,
2013-04-20 12:06:00,55.0,37.7,29.88,NNW,337,1.0,8.0,52,0.00,,OVC065,0.37,VWS V14.01,2013-04-20 16:06:00,
2013-04-20 12:09:00,55.0,37.7,29.88,WNW,292,1.0,1.0,52,0.00,,OVC065,0.37,VWS V14.01,2013-04-20 16:09:00,
2013-04-20 12:10:00,55.0,37.7,29.88,NNW,337,0.0,2.0,52,0.00,,OVC065,0.37,VWS V14.01,2013-04-20 16:10:00,
2013-04-20 12:11:00,55.0,36.7,29.88,WNW,292,2.0,4.0,50,0.00,,OVC065,0.37,VWS V14.01,2013-04-20 16:11:00,
2013-04-20 12:14:00,55.0,36.7,29.88,NW,315,5.0,12.0,50,0.00,,OVC065,0.37,VWS V14.01,2013-04-20 16:14:00,
2013-04-20 12:15:00,55.0,37.2,29.88,NW,315,2.0,12.0,51,0.00,,OVC065,0.37,VWS V14.01,2013-04-20 16:15:00,
2013-04-20 12:16:00,55.0,38.7,29.88,North,360,4.0,12.0,54,0.00,,OVC065,0.37,VWS V14.01,2013-04-20 16:16:00,
2013-04-20 12:19:00,55.0,37.7,29.88,ENE,67,1.0,2.0,52,0.00,,OVC065,0.37,VWS V14.01,2013-04-20 16:19:00,
2013-04-20 12:20:00,55.0,36.7,29.88,North,360,6.0,6.0,50,0.00,,OVC065,0.37,VWS V14.01,2013-04-20 16:20:00,
2013-04-20 12:21:00,55.0,36.7,29.88,WNW,292,0.0,6.0,50,0.00,,OVC065,0.37,VWS V14.01,2013-04-20 16:21:00,
2013-04-20 12:24:00,55.0,38.2,29.89,West,270,0.0,6.0,53,0.00,,OVC065,0.37,VWS V14.01,2013-04-20 16:24:00,
2013-04-20 12:25:00,55.0,36.2,29.89,SSW,202,2.0,6.0,49,0.00,,OVC065,0.37,VWS V14.01,2013-04-20 16:25:00,
2013-04-20 12:26:00,55.0,34.6,29.89,South,180,2.0,8.0,46,0.00,,OVC065,0.37,VWS V14.01,2013-04-20 16:26:00,
2013-04-20 12:29:00,54.0,35.8,29.89,NNW,337,1.0,5.0,50,0.00,,OVC065,0.37,VWS V14.01,2013-04-20 16:29:00,
2013-04-20 12:30:00,55.0,36.2,29.89,WSW,247,4.0,7.0,49,0.00,,OVC065,0.37,VWS V14.01,2013-04-20 16:30:00,
2013-04-20 12:31:00,55.0,35.7,29.89,NW,315,1.0,8.0,48,0.00,,OVC065,0.37,VWS V14.01,2013-04-20 16:31:00,
2013-04-20 12:35:00,54.0,35.8,29.89,NW,315,1.0,12.0,50,0.00,,OVC065,0.37,VWS V14.01,2013-04-20 16:35:00,
2013-04-20 12:36:00,55.0,36.7,29.89,NNW,337,1.0,12.0,50,0.00,,OVC065,0.37,VWS V14.01,2013-04-20 16:36:00,
2013-04-20 12:37:00,55.0,36.7,29.89,North,360,1.0,12.0,50,0.00,,OVC065,0.37,VWS V14.01,2013-04-20 16:37:00,
2013-04-20 12:40:00,55.0,36.7,29.89,WNW,292,3.0,4.0,50,0.00,,OVC065,0.37,VWS V14.01,2013-04-20 16:40:00,
2013-04-20 12:41:00,55.0,35.2,29.89,WSW,247,1.0,5.0,47,0.00,,OVC065,0.37,VWS V14.01,2013-04-20 16:41:00,
2013-04-20 12:42:00,55.0,35.7,29.89,SE,135,6.0,7.0,48,0.00,,OVC065,0.37,VWS V14.01,2013-04-20 16:42:00,
2013-04-20 12:45:00,55.0,36.2,29.89,WSW,247,1.0,8.0,49,0.00,,OVC065,0.37,VWS V14.01,2013-04-20 16:45:00,
2013-04-20 12:46:00,55.0,36.2,29.89,WNW,292,5.0,8.0,49,0.00,,OVC065,0.37,VWS V14.01,2013-04-20 16:46:00,
2013-04-20 12:47:00,55.0,35.2,29.89,NNE,22,2.0,8.0,47,0.00,,OVC065,0.37,VWS V14.01,2013-04-20 16:47:00,
2013-04-20 12:50:00,55.0,35.2,29.89,North,360,1.0,9.0,47,0.00,,OVC065,0.37,VWS V14.01,2013-04-20 16:50:00,
2013-04-20 12:51:00,55.0,35.2,29.89,WSW,247,0.0,9.0,47,0.00,,OVC065,0.37,VWS V14.01,2013-04-20 16:51:00,
2013-04-20 12:53:00,56.0,35.5,29.90,SSW,202,0.0,9.0,46,0.00,,OVC065,0.37,VWS V14.01,2013-04-20 16:53:00,
2013-04-20 12:55:00,56.0,35.0,29.90,West,270,0.0,11.0,45,0.00,,OVC065,0.37,VWS V14.01,2013-04-20 16:55:00,
2013-04-20 12:56:00,56.0,36.6,29.90,SSE,157,2.0,11.0,48,0.00,,OVC065,0.37,VWS V14.01,2013-04-20 16:56:00,
2013-04-20 12:58:00,56.0,35.5,29.89,ESE,112,1.0,11.0,46,0.00,,OVC065,0.37,VWS V14.01,2013-04-20 16:58:00,
2013-04-20 13:00:00,55.0,35.7,29.89,NW,315,3.0,10.0,48,0.00,,OVC065,0.37,VWS V14.01,2013-04-20 17:00:00,
2013-04-20 13:01:00,55.0,35.2,29.89,SW,225,1.0,10.0,47,0.00,,OVC065,0.37,VWS V14.01,2013-04-20 17:01:00,
2013-04-20 13:02:00,56.0,37.1,29.89,SSE,157,0.0,10.0,49,0.00,,OVC065,0.37,VWS V14.01,2013-04-20 17:02:00,
2013-04-20 13:03:00,56.0,35.5,29.89,WNW,292,2.0,10.0,46,0.00,,OVC065,0.37,VWS V14.01,2013-04-20 17:03:00,
2013-04-20 13:05:00,56.0,35.5,29.89,North,360,3.0,10.0,46,0.00,,BKN044,0.37,VWS V14.01,2013-04-20 17:05:00,
2013-04-20 13:06:00,56.0,34.4,29.89,WNW,292,2.0,12.0,44,0.00,,BKN044,0.37,VWS V14.01,2013-04-20 17:06:00,
2013-04-20 13:07:00,56.0,37.1,29.89,SW,225,2.0,12.0,49,0.00,,BKN044,0.37,VWS V14.01,2013-04-20 17:07:00,
2013-04-20 13:08:00,56.0,36.6,29.89,NNW,337,1.0,12.0,48,0.00,,BKN044,0.37,VWS V14.01,2013-04-20 17:08:00,
2013-04-20 13:10:00,56.0,36.1,29.89,NW,315,2.0,6.0,47,0.00,,BKN044,0.37,VWS V14.01,2013-04-20 17:10:00,
2013-04-20 13:11:00,56.0,34.4,29.89,WNW,292,2.0,8.0,44,0.00,,BKN044,0.37,VWS V14.01,2013-04-20 17:11:00,
2013-04-20 13:12:00,56.0,33.8,29.89,West,270,1.0,8.0,43,0.00,,BKN044,0.37,VWS V14.01,2013-04-20 17:12:00,
2013-04-20 13:13:00,56.0,33.8,29.89,NNW,337,2.0,8.0,43,0.00,,BKN044,0.37,VWS V14.01,2013-04-20 17:13:00,
2013-04-20 13:15:00,56.0,34.4,29.89,WSW,247,2.0,8.0,44,0.00,,BKN044,0.37,VWS V14.01,2013-04-20 17:15:00,
2013-04-20 13:16:00,56.0,33.2,29.89,NW,315,4.0,8.0,42,0.00,,BKN044,0.37,VWS V14.01,2013-04-20 17:16:00,
2013-04-20 13:17:00,56.0,34.4,29.89,NNW,337,2.0,8.0,44,0.00,,BKN044,0.37,VWS V14.01,2013-04-20 17:17:00,
2013-04-20 13:19:00,56.0,34.4,29.89,WNW,292,2.0,5.0,44,0.00,,BKN044,0.37,VWS V14.01,2013-04-20 17:19:00,
2013-04-20 13:20:00,55.0,33.5,29.89,WNW,292,2.0,9.0,44,0.00,,BKN044,0.37,VWS V14.01,2013-04-20 17:20:00,
2013-04-20 13:21:00,55.0,33.5,29.89,NW,315,3.0,9.0,44,0.00,,BKN044,0.37,VWS V14.01,2013-04-20 17:21:00,
2013-04-20 13:22:00,55.0,32.9,29.90,West,270,0.0,9.0,43,0.00,,BKN044,0.37,VWS V14.01,2013-04-20 17:22:00,
2013-04-20 13:23:00,55.0,33.5,29.90,NNW,337,0.0,9.0,44,0.00,,BKN044,0.37,VWS V14.01,2013-04-20 17:23:00,
2013-04-20 13:24:00,55.0,35.2,29.90,NW,315,2.0,9.0,47,0.00,,BKN044,0.37,VWS V14.01,2013-04-20 17:24:00,
2013-04-20 13:25:00,56.0,33.2,29.90,NNW,337,2.0,14.0,42,0.00,,BKN044,0.37,VWS V14.01,2013-04-20 17:25:00,
2013-04-20 13:26:00,56.0,33.2,29.90,NNW,337,6.0,14.0,42,0.00,,BKN044,0.37,VWS V14.01,2013-04-20 17:26:00,
2013-04-20 13:27:00,56.0,33.2,29.90,NW,315,2.0,14.0,42,0.00,,BKN044,0.37,VWS V14.01,2013-04-20 17:27:00,
2013-04-20 13:28:00,56.0,35.0,29.90,NW,315,1.0,14.0,45,0.00,,BKN044,0.37,VWS V14.01,2013-04-20 17:28:00,
2013-04-20 13:29:00,56.0,34.4,29.90,WNW,292,1.0,6.0,44,0.00,,BKN044,0.37,VWS V14.01,2013-04-20 17:29:00,
2013-04-20 13:30:00,56.0,35.0,29.90,North,360,2.0,17.0,45,0.00,,BKN044,0.37,VWS V14.01,2013-04-20 17:30:00,
2013-04-20 13:32:00,56.0,33.8,29.90,NNW,337,2.0,17.0,43,0.00,,BKN044,0.37,VWS V14.01,2013-04-20 17:32:00,
2013-04-20 13:33:00,56.0,33.2,29.90,NNW,337,2.0,17.0,42,0.00,,BKN044,0.37,VWS V14.01,2013-04-20 17:33:00,
2013-04-20 13:34:00,56.0,34.4,29.90,North,360,2.0,17.0,44,0.00,,BKN044,0.37,VWS V14.01,2013-04-20 17:34:00,
2013-04-20 13:36:00,56.0,34.4,29.90,WNW,292,2.0,17.0,44,0.00,,BKN044,0.37,VWS V14.01,2013-04-20 17:36:00,
2013-04-20 13:37:00,56.0,33.8,29.90,West,270,2.0,17.0,43,0.00,,BKN044,0.37,VWS V14.01,2013-04-20 17:37:00,
2013-04-20 13:38:00,56.0,33.8,29.90,WNW,292,1.0,17.0,43,0.00,,BKN044,0.37,VWS V14.01,2013-04-20 17:38:00,
2013-04-20 13:39:00,56.0,32.7,29.90,NW,315,2.0,6.0,41,0.00,,BKN044,0.37,VWS V14.01,2013-04-20 17:39:00,
2013-04-20 13:41:00,56.0,33.8,29.90,West,270,6.0,19.0,43,0.00,,BKN049,0.37,VWS V14.01,2013-04-20 17:41:00,
2013-04-20 13:43:00,56.0,33.2,29.90,SW,225,1.0,19.0,42,0.00,,BKN049,0.37,VWS V14.01,2013-04-20 17:43:00,
2013-04-20 13:45:00,56.0,33.8,29.90,NNW,337,2.0,19.0,43,0.00,,BKN049,0.37,VWS V14.01,2013-04-20 17:45:00,
2013-04-20 13:46:00,56.0,34.4,29.90,North,360,2.0,19.0,44,0.00,,BKN049,0.37,VWS V14.01,2013-04-20 17:46:00,
2013-04-20 13:48:00,56.0,35.0,29.90,WNW,292,1.0,19.0,45,0.00,,BKN049,0.37,VWS V14.01,2013-04-20 17:48:00,
2013-04-20 13:50:00,56.0,32.0,29.90,NW,315,3.0,9.0,40,0.00,,BKN049,0.37,VWS V14.01,2013-04-20 17:50:00,
2013-04-20 13:51:00,56.0,33.8,29.90,North,360,2.0,12.0,43,0.00,,BKN049,0.37,VWS V14.01,2013-04-20 17:51:00,
2013-04-20 13:53:00,56.0,33.8,29.90,ENE,67,5.0,12.0,43,0.00,,BKN049,0.37,VWS V14.01,2013-04-20 17:53:00,
2013-04-20 13:55:00,56.0,33.2,29.90,NW,315,4.0,12.0,42,0.00,,BKN049,0.37,VWS V14.01,2013-04-20 17:55:00,
2013-04-20 13:56:00,56.0,32.7,29.90,North,360,3.0,12.0,41,0.00,,BKN049,0.37,VWS V14.01,2013-04-20 17:56:00,
2013-04-20 13:58:00,56.0,32.7,29.90,West,270,6.0,12.0,41,0.00,,BKN049,0.37,VWS V14.01,2013-04-20 17:58:00,
2013-04-20 14:00:00,56.0,34.4,29.90,ENE,67,0.0,2.0,44,0.00,,BKN049,0.37,VWS V14.01,2013-04-20 18:00:00,
2013-04-20 14:01:00,56.0,33.2,29.90,WNW,292,2.0,5.0,42,0.00,,BKN049,0.37,VWS V14.01,2013-04-20 18:01:00,
2013-04-20 14:03:00,56.0,32.7,29.90,NNW,337,1.0,9.0,41,0.00,,BKN049,0.37,VWS V14.01,2013-04-20 18:03:00,
2013-04-20 14:04:00,56.0,33.8,29.90,ESE,112,2.0,9.0,43,0.00,,BKN049,0.37,VWS V14.01,2013-04-20 18:04:00,
2013-04-20 14:05:00,56.0,33.8,29.90,NE,45,0.0,9.0,43,0.00,,BKN049,0.37,VWS V14.01,2013-04-20 18:05:00,
2013-04-20 14:07:00,56.0,32.0,29.90,WNW,292,1.0,11.0,40,0.00,,BKN049,0.37,VWS V14.01,2013-04-20 18:07:00,
2013-04-20 14:08:00,56.0,33.2,29.90,ESE,112,3.0,11.0,42,0.00,,BKN049,0.37,VWS V14.01,2013-04-20 18:08:00,
2013-04-20 14:09:00,56.0,32.0,29.90,SW,225,2.0,3.0,40,0.00,,BKN049,0.37,VWS V14.01,2013-04-20 18:09:00,
2013-04-20 14:10:00,56.0,34.4,29.90,WNW,292,1.0,4.0,44,0.00,,BKN049,0.37,VWS V14.01,2013-04-20 18:10:00,
2013-04-20 14:12:00,56.0,33.8,29.91,NW,315,1.0,4.0,43,0.00,,BKN049,0.37,VWS V14.01,2013-04-20 18:12:00,
2013-04-20 14:13:00,56.0,33.2,29.91,SW,225,2.0,11.0,42,0.00,,BKN049,0.37,VWS V14.01,2013-04-20 18:13:00,
2013-04-20 14:14:00,56.0,32.7,29.91,NW,315,1.0,11.0,41,0.00,,BKN049,0.37,VWS V14.01,2013-04-20 18:14:00,
2013-04-20 14:15:00,56.0,33.2,29.91,WSW,247,3.0,11.0,42,0.00,,BKN049,0.37,VWS V14.01,2013-04-20 18:15:00,
2013-04-20 14:17:00,56.0,33.8,29.90,SSW,202,1.0,13.0,43,0.00,,BKN049,0.37,VWS V14.01,2013-04-20 18:17:00,
2013-04-20 14:18:00,56.0,31.4,29.90,SE,135,2.0,13.0,39,0.00,,BKN049,0.37,VWS V14.01,2013-04-20 18:18:00,
2013-04-20 14:19:00,56.0,32.7,29.90,WNW,292,1.0,2.0,41,0.00,,BKN049,0.37,VWS V14.01,2013-04-20 18:19:00,
2013-04-20 14:21:00,56.0,32.0,29.90,NNE,22,3.0,9.0,40,0.00,,BKN049,0.37,VWS V14.01,2013-04-20 18:21:00,
2013-04-20 14:22:00,56.0,32.7,29.91,NW,315,2.0,9.0,41,0.00,,BKN049,0.37,VWS V14.01,2013-04-20 18:22:00,
2013-04-20 14:24:00,56.0,32.7,29.91,West,270,1.0,11.0,41,0.00,,BKN049,0.37,VWS V14.01,2013-04-20 18:24:00,
2013-04-20 14:26:00,56.0,33.8,29.91,WNW,292,1.0,11.0,43,0.00,,BKN049,0.37,VWS V14.01,2013-04-20 18:26:00,
2013-04-20 14:27:00,56.0,33.8,29.91,WSW,247,0.0,11.0,43,0.00,,BKN049,0.37,VWS V14.01,2013-04-20 18:27:00,
2013-04-20 14:29:00,56.0,33.8,29.91,WSW,247,1.0,2.0,43,0.00,,BKN049,0.37,VWS V14.01,2013-04-20 18:29:00,
2013-04-20 14:31:00,57.0,34.8,29.91,NNW,337,4.0,4.0,43,0.00,,BKN049,0.37,VWS V14.01,2013-04-20 18:31:00,
2013-04-20 14:32:00,57.0,33.5,29.91,NNW,337,0.0,12.0,41,0.00,,BKN049,0.37,VWS V14.01,2013-04-20 18:32:00,
2013-04-20 14:34:00,57.0,34.2,29.91,NNW,337,4.0,12.0,42,0.00,,BKN049,0.37,VWS V14.01,2013-04-20 18:34:00,
2013-04-20 14:36:00,57.0,32.9,29.91,WSW,247,6.0,12.0,40,0.00,,BKN049,0.37,VWS V14.01,2013-04-20 18:36:00,
2013-04-20 14:37:00,57.0,32.3,29.92,NW,315,4.0,12.0,39,0.00,,BKN049,0.37,VWS V14.01,2013-04-20 18:37:00,
2013-04-20 14:39:00,56.0,33.2,29.92,West,270,2.0,2.0,42,0.00,,BKN049,0.37,VWS V14.01,2013-04-20 18:39:00,
2013-04-20 14:41:00,56.0,33.8,29.92,SW,225,0.0,4.0,43,0.00,,FEW055,0.37,VWS V14.01,2013-04-20 18:41:00,
2013-04-20 14:42:00,57.0,34.2,29.92,South,180,2.0,4.0,42,0.00,,FEW055,0.37,VWS V14.01,2013-04-20 18:42:00,
2013-04-20 14:44:00,56.0,32.7,29.92,South,180,1.0,4.0,41,0.00,,FEW055,0.37,VWS V14.01,2013-04-20 18:44:00,
2013-04-20 14:45:00,56.0,33.2,29.92,North,360,3.0,4.0,42,0.00,,FEW055,0.37,VWS V14.01,2013-04-20 18:45:00,
2013-04-20 14:46:00,56.0,32.7,29.92,NW,315,4.0,4.0,41,0.00,,FEW055,0.37,VWS V14.01,2013-04-20 18:46:00,
2013-04-20 14:47:00,56.0,33.2,29.92,NW,315,1.0,6.0,42,0.00,,FEW055,0.37,VWS V14.01,2013-04-20 18:47:00,
2013-04-20 14:49:00,56.0,33.2,29.92,NW,315,4.0,4.0,42,0.00,,FEW055,0.37,VWS V14.01,2013-04-20 18:49:00,
2013-04-20 14:50:00,56.0,33.2,29.92,NNW,337,1.0,5.0,42,0.00,,FEW055,0.37,VWS V14.01,2013-04-20 18:50:00,
2013-04-20 14:51:00,56.0,32.7,29.92,NNE,22,2.0,11.0,41,0.00,,FEW055,0.37,VWS V14.01,2013-04-20 18:51:00,
2013-04-20 14:53:00,56.0,33.8,29.92,WNW,292,1.0,11.0,43,0.00,,FEW055,0.37,VWS V14.01,2013-04-20 18:53:00,
2013-04-20 14:54:00,56.0,35.0,29.92,West,270,1.0,11.0,45,0.00,,FEW055,0.37,VWS V14.01,2013-04-20 18:54:00,
2013-04-20 14:55:00,56.0,34.4,29.92,North,360,3.0,11.0,44,0.00,,FEW055,0.37,VWS V14.01,2013-04-20 18:55:00,
2013-04-20 14:57:00,56.0,31.4,29.92,NNW,337,1.0,13.0,39,0.00,,FEW055,0.37,VWS V14.01,2013-04-20 18:57:00,
2013-04-20 14:58:00,56.0,32.0,29.92,NNW,337,1.0,13.0,40,0.00,,FEW055,0.37,VWS V14.01,2013-04-20 18:58:00,
2013-04-20 14:59:00,56.0,33.2,29.92,NW,315,2.0,2.0,42,0.00,,FEW055,0.37,VWS V14.01,2013-04-20 18:59:00,
2013-04-20 15:00:00,56.0,32.0,29.92,NW,315,4.0,4.0,40,0.00,,FEW055,0.37,VWS V14.01,2013-04-20 19:00:00,
2013-04-20 15:02:00,56.0,31.4,29.92,WSW,247,1.0,12.0,39,0.00,,FEW055,0.37,VWS V14.01,2013-04-20 19:02:00,
2013-04-20 15:03:00,56.0,32.0,29.92,West,270,1.0,12.0,40,0.00,,FEW055,0.37,VWS V14.01,2013-04-20 19:03:00,
2013-04-20 15:04:00,55.0,31.8,29.92,South,180,1.0,12.0,41,0.00,,FEW055,0.37,VWS V14.01,2013-04-20 19:04:00,
2013-04-20 15:05:00,56.0,32.0,29.92,NE,45,0.0,12.0,40,0.00,,FEW055,0.37,VWS V14.01,2013-04-20 19:05:00,
2013-04-20 15:07:00,56.0,32.0,29.93,SSW,202,1.0,12.0,40,0.00,,FEW055,0.37,VWS V14.01,2013-04-20 19:07:00,
2013-04-20 15:08:00,56.0,31.4,29.93,WNW,292,2.0,12.0,39,0.00,,FEW055,0.37,VWS V14.01,2013-04-20 19:08:00,
2013-04-20 15:09:00,56.0,32.0,29.93,NW,315,2.0,4.0,40,0.00,,FEW055,0.37,VWS V14.01,2013-04-20 19:09:00,
2013-04-20 15:10:00,56.0,32.0,29.93,NNW,337,1.0,4.0,40,0.00,,FEW055,0.37,VWS V14.01,2013-04-20 19:10:00,
2013-04-20 15:12:00,56.0,32.0,29.92,NNW,337,2.0,12.0,40,0.00,,FEW055,0.37,VWS V14.01,2013-04-20 19:12:00,
2013-04-20 15:13:00,56.0,32.0,29.92,WNW,292,0.0,12.0,40,0.00,,FEW055,0.37,VWS V14.01,2013-04-20 19:13:00,
2013-04-20 15:14:00,56.0,32.0,29.92,North,360,2.0,12.0,40,0.00,,FEW055,0.37,VWS V14.01,2013-04-20 19:14:00,
2013-04-20 15:15:00,56.0,32.0,29.92,North,360,6.0,12.0,40,0.00,,FEW055,0.37,VWS V14.01,2013-04-20 19:15:00,
2013-04-20 15:17:00,56.0,33.2,29.92,NW,315,4.0,12.0,42,0.00,,FEW055,0.37,VWS V14.01,2013-04-20 19:17:00,
2013-04-20 15:18:00,56.0,32.0,29.92,NNW,337,1.0,1.0,40,0.00,,FEW055,0.37,VWS V14.01,2013-04-20 19:18:00,
2013-04-20 15:20:00,56.0,32.0,29.92,North,360,2.0,4.0,40,0.00,,FEW055,0.37,VWS V14.01,2013-04-20 19:20:00,
2013-04-20 15:23:00,56.0,32.7,29.92,South,180,0.0,7.0,41,0.00,,FEW055,0.37,VWS V14.01,2013-04-20 19:23:00,
2013-04-20 15:24:00,56.0,31.4,29.92,North,360,4.0,7.0,39,0.00,,FEW055,0.37,VWS V14.01,2013-04-20 19:24:00,
2013-04-20 15:25:00,56.0,32.0,29.92,WNW,292,1.0,7.0,40,0.00,,FEW055,0.37,VWS V14.01,2013-04-20 19:25:00,
2013-04-20 15:26:00,56.0,31.4,29.92,NE,45,2.0,12.0,39,0.00,,FEW055,0.37,VWS V14.01,2013-04-20 19:26:00,
2013-04-20 15:28:00,57.0,32.9,29.93,North,360,4.0,12.0,40,0.00,,FEW055,0.37,VWS V14.01,2013-04-20 19:28:00,
2013-04-20 15:29:00,57.0,31.7,29.93,SSE,157,1.0,4.0,38,0.00,,FEW055,0.37,VWS V14.01,2013-04-20 19:29:00,
2013-04-20 15:30:00,57.0,32.3,29.93,West,270,1.0,4.0,39,0.00,,FEW055,0.37,VWS V14.01,2013-04-20 19:30:00,
2013-04-20 15:31:00,57.0,31.7,29.93,WNW,292,7.0,9.0,38,0.00,,FEW055,0.37,VWS V14.01,2013-04-20 19:31:00,
2013-04-20 15:33:00,57.0,32.3,29.94,West,270,2.0,9.0,39,0.00,,FEW055,0.37,VWS V14.01,2013-04-20 19:33:00,
2013-04-20 15:34:00,57.0,31.7,29.94,NW,315,2.0,9.0,38,0.00,,FEW055,0.37,VWS V14.01,2013-04-20 19:34:00,
2013-04-20 15:35:00,57.0,32.3,29.94,NNW,337,3.0,9.0,39,0.00,,FEW055,0.37,VWS V14.01,2013-04-20 19:35:00,
2013-04-20 15:36:00,57.0,33.5,29.94,West,270,1.0,9.0,41,0.00,,FEW055,0.37,VWS V14.01,2013-04-20 19:36:00,
2013-04-20 15:38:00,57.0,33.5,29.94,WNW,292,2.0,9.0,41,0.00,,FEW055,0.37,VWS V14.01,2013-04-20 19:38:00,
2013-04-20 15:39:00,57.0,32.3,29.94,NW,315,4.0,7.0,39,0.00,,FEW055,0.37,VWS V14.01,2013-04-20 19:39:00,
2013-04-20 15:40:00,57.0,32.3,29.94,NW,315,5.0,11.0,39,0.00,,FEW060,0.37,VWS V14.01,2013-04-20 19:40:00,
2013-04-20 15:41:00,56.0,31.4,29.94,NW,315,4.0,11.0,39,0.00,,FEW060,0.37,VWS V14.01,2013-04-20 19:41:00,
2013-04-20 15:43:00,56.0,32.0,29.94,North,360,1.0,11.0,40,0.00,,FEW060,0.37,VWS V14.01,2013-04-20 19:43:00,
2013-04-20 15:44:00,56.0,31.4,29.94,SSW,202,2.0,11.0,39,0.00,,FEW060,0.37,VWS V14.01,2013-04-20 19:44:00,
2013-04-20 15:45:00,56.0,32.0,29.94,SW,225,1.0,11.0,40,0.00,,FEW060,0.37,VWS V14.01,2013-04-20 19:45:00,
2013-04-20 15:46:00,56.0,32.0,29.94,SW,225,1.0,11.0,40,0.00,,FEW060,0.37,VWS V14.01,2013-04-20 19:46:00,
2013-04-20 15:48:00,56.0,32.7,29.94,NW,315,2.0,11.0,41,0.00,,FEW060,0.37,VWS V14.01,2013-04-20 19:48:00,
2013-04-20 15:49:00,56.0,32.7,29.94,West,270,4.0,9.0,41,0.00,,FEW060,0.37,VWS V14.01,2013-04-20 19:49:00,
2013-04-20 15:50:00,55.0,31.8,29.94,WNW,292,0.0,9.0,41,0.00,,FEW060,0.37,VWS V14.01,2013-04-20 19:50:00,
2013-04-20 15:51:00,55.0,32.3,29.94,NW,315,2.0,9.0,42,0.00,,FEW060,0.37,VWS V14.01,2013-04-20 19:51:00,
2013-04-20 15:53:00,55.0,32.3,29.94,North,360,1.0,9.0,42,0.00,,FEW060,0.37,VWS V14.01,2013-04-20 19:53:00,
2013-04-20 15:55:00,55.0,31.8,29.94,NW,315,2.0,9.0,41,0.00,,FEW060,0.37,VWS V14.01,2013-04-20 19:55:00,
2013-04-20 15:56:00,55.0,32.9,29.94,WNW,292,1.0,9.0,43,0.00,,FEW060,0.37,VWS V14.01,2013-04-20 19:56:00,
2013-04-20 15:58:00,55.0,32.9,29.94,North,360,1.0,11.0,43,0.00,,FEW060,0.37,VWS V14.01,2013-04-20 19:58:00,
2013-04-20 16:00:00,55.0,32.3,29.94,WNW,292,2.0,2.0,42,0.00,,FEW060,0.37,VWS V14.01,2013-04-20 20:00:00,
2013-04-20 16:01:00,55.0,33.5,29.94,WNW,292,1.0,2.0,44,0.00,,FEW060,0.37,VWS V14.01,2013-04-20 20:01:00,
2013-04-20 16:04:00,56.0,34.4,29.94,West,270,2.0,3.0,44,0.00,,FEW060,0.37,VWS V14.01,2013-04-20 20:04:00,
2013-04-20 16:05:00,56.0,33.2,29.94,WNW,292,3.0,3.0,42,0.00,,FEW060,0.37,VWS V14.01,2013-04-20 20:05:00,
2013-04-20 16:06:00,56.0,32.7,29.94,SW,225,4.0,7.0,41,0.00,,FEW060,0.37,VWS V14.01,2013-04-20 20:06:00,
2013-04-20 16:09:00,56.0,32.0,29.94,SW,225,5.0,9.0,40,0.00,,FEW060,0.37,VWS V14.01,2013-04-20 20:09:00,
2013-04-20 16:10:00,56.0,32.0,29.94,NNW,337,0.0,9.0,40,0.00,,FEW060,0.37,VWS V14.01,2013-04-20 20:10:00,
2013-04-20 16:11:00,56.0,33.2,29.94,WNW,292,0.0,9.0,42,0.00,,FEW060,0.37,VWS V14.01,2013-04-20 20:11:00,
2013-04-20 16:12:00,56.0,32.0,29.94,ESE,112,1.0,9.0,40,0.00,,FEW060,0.37,VWS V14.01,2013-04-20 20:12:00,
2013-04-20 16:14:00,56.0,32.7,29.94,SW,225,2.0,9.0,41,0.00,,FEW060,0.37,VWS V14.01,2013-04-20 20:14:00,
2013-04-20 16:15:00,56.0,32.7,29.94,NW,315,4.0,9.0,41,0.00,,FEW060,0.37,VWS V14.01,2013-04-20 20:15:00,
2013-04-20 16:16:00,56.0,33.2,29.94,NNW,337,2.0,9.0,42,0.00,,FEW060,0.37,VWS V14.01,2013-04-20 20:16:00,
2013-04-20 16:17:00,56.0,32.7,29.95,West,270,0.0,9.0,41,0.00,,FEW060,0.37,VWS V14.01,2013-04-20 20:17:00,
2013-04-20 16:19:00,56.0,32.0,29.95,WSW,247,2.0,2.0,40,0.00,,FEW060,0.37,VWS V14.01,2013-04-20 20:19:00,
2013-04-20 16:20:00,56.0,31.4,29.95,West,270,0.0,2.0,39,0.00,,FEW060,0.37,VWS V14.01,2013-04-20 20:20:00,
2013-04-20 16:21:00,56.0,31.4,29.95,West,270,0.0,2.0,39,0.00,,FEW060,0.37,VWS V14.01,2013-04-20 20:21:00,
2013-04-20 16:22:00,56.0,32.7,29.95,NW,315,2.0,5.0,41,0.00,,FEW060,0.37,VWS V14.01,2013-04-20 20:22:00,
2013-04-20 16:30:00,57.0,29.6,29.99,WNW,292,3.0,11.0,35,0.00,,FEW060,0.37,VWS V14.01,2013-04-20 20:30:00,
2013-04-20 16:40:00,58.0,29.8,30.00,WNW,292,1.0,11.0,34,0.00,,FEW060,0.37,VWS V14.01,2013-04-20 20:40:00,
2013-04-20 16:50:00,57.0,30.3,30.00,NW,315,6.0,16.0,36,0.00,,FEW060,0.37,VWS V14.01,2013-04-20 20:50:00,
2013-04-20 17:00:00,56.0,26.6,30.00,ENE,67,4.0,13.0,32,0.00,,FEW060,0.37,VWS V14.01,2013-04-20 21:00:00,
2013-04-20 17:10:00,55.0,27.9,30.01,SW,225,1.0,11.0,35,0.00,,FEW060,0.37,VWS V14.01,2013-04-20 21:10:00,
2013-04-20 17:20:00,55.0,29.9,30.02,NW,315,2.0,9.0,38,0.00,,FEW060,0.37,VWS V14.01,2013-04-20 21:20:00,
2013-04-20 17:30:00,55.0,28.6,30.01,WNW,292,0.0,5.0,36,0.00,,FEW060,0.37,VWS V14.01,2013-04-20 21:30:00,
2013-04-20 17:40:00,54.0,30.2,30.02,NW,315,2.0,10.0,40,0.00,,FEW060,0.37,VWS V14.01,2013-04-20 21:40:00,
2013-04-20 17:50:00,54.0,29.0,30.03,North,360,7.0,7.0,38,0.00,,FEW060,0.37,VWS V14.01,2013-04-20 21:50:00,
2013-04-20 18:00:00,53.0,28.1,30.03,WNW,292,0.0,7.0,38,0.00,,FEW060,0.37,VWS V14.01,2013-04-20 22:00:00,
2013-04-20 18:10:00,53.0,28.1,30.04,North,360,1.0,7.0,38,0.00,,FEW060,0.37,VWS V14.01,2013-04-20 22:10:00,
2013-04-20 18:20:00,52.0,29.6,30.05,NW,315,12.0,12.0,42,0.00,,FEW060,0.37,VWS V14.01,2013-04-20 22:20:00,
2013-04-20 18:30:00,52.0,29.0,30.06,North,360,2.0,12.0,41,0.00,,FEW060,0.37,VWS V14.01,2013-04-20 22:30:00,
2013-04-20 18:40:00,51.0,26.3,30.06,NW,315,2.0,11.0,38,0.00,,FEW060,0.37,VWS V14.01,2013-04-20 22:40:00,
2013-04-20 18:50:00,51.0,26.9,30.07,NW,315,0.0,9.0,39,0.00,,FEW060,0.37,VWS V14.01,2013-04-20 22:50:00,
2013-04-20 19:00:00,50.0,26.6,30.08,NW,315,2.0,10.0,40,0.00,,FEW060,0.37,VWS V14.01,2013-04-20 23:00:00,
2013-04-20 19:10:00,50.0,28.4,30.08,North,360,0.0,4.0,43,0.00,,FEW060,0.37,VWS V14.01,2013-04-20 23:10:00,
2013-04-20 19:20:00,49.0,28.6,30.09,NNW,337,0.0,2.0,45,0.00,,FEW060,0.37,VWS V14.01,2013-04-20 23:20:00,
2013-04-20 19:30:00,49.0,28.0,30.10,NNW,337,2.0,9.0,44,0.00,,FEW060,0.37,VWS V14.01,2013-04-20 23:30:00,
2013-04-20 19:40:00,49.0,26.3,30.11,NW,315,2.0,9.0,41,0.00,,FEW060,0.37,VWS V14.01,2013-04-20 23:40:00,
2013-04-20 19:50:00,49.0,26.3,30.12,NNE,22,5.0,7.0,41,0.00,,FEW060,0.37,VWS V14.01,2013-04-20 23:50:00,
2013-04-20 20:00:00,48.0,24.9,30.13,NW,315,1.0,5.0,40,0.00,,FEW060,0.37,VWS V14.01,2013-04-21 00:00:00,
2013-04-20 20:10:00,48.0,23.6,30.13,NNW,337,4.0,7.0,38,0.00,,FEW060,0.37,VWS V14.01,2013-04-21 00:10:00,
2013-04-20 20:20:00,48.0,24.2,30.14,North,360,2.0,13.0,39,0.00,,FEW060,0.37,VWS V14.01,2013-04-21 00:20:00,
2013-04-20 20:30:00,48.0,23.6,30.15,NNW,337,2.0,11.0,38,0.00,,FEW060,0.37,VWS V14.01,2013-04-21 00:30:00,
2013-04-20 20:40:00,48.0,24.9,30.14,NW,315,1.0,8.0,40,0.00,,FEW060,0.37,VWS V14.01,2013-04-21 00:40:00,
2013-04-20 20:50:00,47.0,23.3,30.14,NNW,337,2.0,9.0,39,0.00,,FEW060,0.37,VWS V14.01,2013-04-21 00:50:00,
2013-04-20 21:00:00,47.0,25.7,30.16,ENE,67,2.0,4.0,43,0.00,,FEW060,0.37,VWS V14.01,2013-04-21 01:00:00,
2013-04-20 21:10:00,46.0,25.3,30.16,North,360,1.0,8.0,44,0.00,,FEW060,0.37,VWS V14.01,2013-04-21 01:10:00,
2013-04-20 21:20:00,46.0,24.8,30.16,NW,315,1.0,9.0,43,0.00,,FEW060,0.37,VWS V14.01,2013-04-21 01:20:00,
2013-04-20 21:30:00,47.0,25.7,30.17,NNW,337,2.0,11.0,43,0.00,,FEW060,0.37,VWS V14.01,2013-04-21 01:30:00,
2013-04-20 21:40:00,46.0,25.9,30.17,NW,315,0.0,7.0,45,0.00,,FEW060,0.37,VWS V14.01,2013-04-21 01:40:00,
2013-04-20 21:50:00,45.0,24.4,30.18,NNW,337,2.0,8.0,44,0.00,,FEW060,0.37,VWS V14.01,2013-04-21 01:50:00,
2013-04-20 22:00:00,45.0,25.0,30.18,North,360,1.0,8.0,45,0.00,,FEW060,0.37,VWS V14.01,2013-04-21 02:00:00,
2013-04-20 22:10:00,45.0,25.0,30.19,NNE,22,6.0,9.0,45,0.00,,FEW060,0.37,VWS V14.01,2013-04-21 02:10:00,
2013-04-20 22:20:00,44.0,23.5,30.19,North,360,2.0,11.0,44,0.00,,FEW060,0.37,VWS V14.01,2013-04-21 02:20:00,
2013-04-20 22:30:00,44.0,24.0,30.20,NW,315,2.0,11.0,45,0.00,,FEW060,0.37,VWS V14.01,2013-04-21 02:30:00,
2013-04-20 22:40:00,44.0,23.5,30.20,NNW,337,2.0,11.0,44,0.00,,FEW060,0.37,VWS V14.01,2013-04-21 02:40:00,
2013-04-20 22:50:00,43.0,22.0,30.21,NNW,337,7.0,14.0,43,0.00,,FEW060,0.37,VWS V14.01,2013-04-21 02:50:00,
2013-04-20 23:00:00,43.0,22.0,30.21,NNW,337,5.0,13.0,43,0.00,,FEW060,0.37,VWS V14.01,2013-04-21 03:00:00,
2013-04-20 23:10:00,42.0,21.1,30.23,WNW,292,2.0,10.0,43,0.00,,FEW060,0.37,VWS V14.01,2013-04-21 03:10:00,
2013-04-20 23:20:00,42.0,21.1,30.23,WNW,292,6.0,8.0,43,0.00,,FEW060,0.37,VWS V14.01,2013-04-21 03:20:00,
2013-04-20 23:30:00,41.0,21.3,30.24,WNW,292,0.0,13.0,45,0.00,,FEW060,0.37,VWS V14.01,2013-04-21 03:30:00,
2013-04-20 23:40:00,41.0,21.3,30.24,SSW,202,0.0,8.0,45,0.00,,FEW060,0.37,VWS V14.01,2013-04-21 03:40:00,
2013-04-20 23:50:00,40.0,20.9,30.25,North,360,9.0,11.0,46,0.00,,FEW060,0.37,VWS V14.01,2013-04-21 03:50:00,